sensor_id;sensor_type;location;lat;lon;timestamp;temperature;humidity
7512;DHT22;9999;48.780;9.146;2022-10-01T00:00:48;9.60;99.90
7512;DHT22;9999;48.780;9.146;2022-10-01T00:03:16;9.50;99.90
7512;DHT22;9999;48.780;9.146;2022-10-01T00:05:43;9.40;99.90
7512;DHT22;9999;48.780;9.146;2022-10-01T00:08:12;9.40;99.90
7512;DHT22;9999;48.780;9.146;2022-10-01T00:10:40;9.40;99.90
7512;DHT22;9999;48.780;9.146;2022-10-01T00:13:07;9.40;99.90
7512;DHT22;9999;48.780;9.146;2022-10-01T00:15:38;9.50;99.90
7512;DHT22;9999;48.780;9.146;2022-10-01T00:18:05;9.40;99.90
7512;DHT22;9999;48.780;9.146;2022-10-01T00:20:33;9.30;99.90
7512;DHT22;9999;48.780;9.146;2022-10-01T00:23:00;9.30;99.90
7512;DHT22;9999;48.780;9.146;2022-10-01T00:25:27;9.30;99.90
7512;DHT22;9999;48.780;9.146;2022-10-01T00:27:54;9.30;99.90
7512;DHT22;9999;48.780;9.146;2022-10-01T00:30:21;9.30;99.90
7512;DHT22;9999;48.780;9.146;2022-10-01T00:32:52;9.30;99.90
7512;DHT22;9999;48.780;9.146;2022-10-01T00:35:19;9.30;99.90
7512;DHT22;9999;48.780;9.146;2022-10-01T00:37:46;9.20;99.90
7512;DHT22;9999;48.780;9.146;2022-10-01T00:40:15;9.20;99.90
7512;DHT22;9999;48.780;9.146;2022-10-01T00:42:42;9.30;99.90
7512;DHT22;9999;48.780;9.146;2022-10-01T00:45:10;9.20;99.90
7512;DHT22;9999;48.780;9.146;2022-10-01T00:47:39;9.10;99.90
7512;DHT22;9999;48.780;9.146;2022-10-01T00:50:11;9.00;99.90
7512;DHT22;9999;48.780;9.146;2022-10-01T00:52:44;9.00;99.90
7512;DHT22;9999;48.780;9.146;2022-10-01T00:55:14;9.00;99.90
7512;DHT22;9999;48.780;9.146;2022-10-01T00:57:43;9.00;99.90
7512;DHT22;9999;48.780;9.146;2022-10-01T01:00:12;9.00;99.90
7512;DHT22;9999;48.780;9.146;2022-10-01T01:02:39;9.00;99.90
7512;DHT22;9999;48.780;9.146;2022-10-01T01:05:08;9.00;99.90
7512;DHT22;9999;48.780;9.146;2022-10-01T01:07:39;9.00;99.90
7512;DHT22;9999;48.780;9.146;2022-10-01T01:10:09;9.00;99.90
7512;DHT22;9999;48.780;9.146;2022-10-01T01:12:49;9.10;99.90
7512;DHT22;9999;48.780;9.146;2022-10-01T01:15:22;9.10;99.90
7512;DHT22;9999;48.780;9.146;2022-10-01T01:17:56;9.20;99.90
7512;DHT22;9999;48.780;9.146;2022-10-01T01:20:52;9.20;99.90
7512;DHT22;9999;48.780;9.146;2022-10-01T01:23:57;9.20;99.90
7512;DHT22;9999;48.780;9.146;2022-10-01T01:26:32;9.20;99.90
7512;DHT22;9999;48.780;9.146;2022-10-01T01:29:06;9.20;99.90
7512;DHT22;9999;48.780;9.146;2022-10-01T01:31:40;9.10;99.90
7512;DHT22;9999;48.780;9.146;2022-10-01T01:34:12;9.20;99.90
7512;DHT22;9999;48.780;9.146;2022-10-01T01:36:44;9.20;99.90
7512;DHT22;9999;48.780;9.146;2022-10-01T01:39:14;9.20;99.90
7512;DHT22;9999;48.780;9.146;2022-10-01T01:41:47;9.20;99.90
7512;DHT22;9999;48.780;9.146;2022-10-01T01:44:19;9.20;99.90
7512;DHT22;9999;48.780;9.146;2022-10-01T01:46:48;9.20;99.90
7512;DHT22;9999;48.780;9.146;2022-10-01T01:49:17;9.20;99.90
7512;DHT22;9999;48.780;9.146;2022-10-01T01:51:50;9.20;99.90
7512;DHT22;9999;48.780;9.146;2022-10-01T01:54:17;9.30;99.90
7512;DHT22;9999;48.780;9.146;2022-10-01T01:56:45;9.20;99.90
7512;DHT22;9999;48.780;9.146;2022-10-01T01:59:16;9.20;99.90
7512;DHT22;9999;48.780;9.146;2022-10-01T02:01:45;9.20;99.90
7512;DHT22;9999;48.780;9.146;2022-10-01T02:04:19;9.20;99.90
7512;DHT22;9999;48.780;9.146;2022-10-01T02:07:01;9.20;99.90
7512;DHT22;9999;48.780;9.146;2022-10-01T02:09:34;9.20;99.90
7512;DHT22;9999;48.780;9.146;2022-10-01T02:12:10;9.30;99.90
7512;DHT22;9999;48.780;9.146;2022-10-01T02:14:45;9.20;99.90
7512;DHT22;9999;48.780;9.146;2022-10-01T02:17:25;9.30;99.90
7512;DHT22;9999;48.780;9.146;2022-10-01T02:19:56;9.20;99.90
7512;DHT22;9999;48.780;9.146;2022-10-01T02:22:30;9.20;99.90
7512;DHT22;9999;48.780;9.146;2022-10-01T02:25:05;9.20;99.90
7512;DHT22;9999;48.780;9.146;2022-10-01T02:27:37;9.30;99.90
7512;DHT22;9999;48.780;9.146;2022-10-01T02:30:09;9.30;99.90
7512;DHT22;9999;48.780;9.146;2022-10-01T02:32:38;9.20;99.90
7512;DHT22;9999;48.780;9.146;2022-10-01T02:35:08;9.30;99.90
7512;DHT22;9999;48.780;9.146;2022-10-01T02:37:38;9.30;99.90
7512;DHT22;9999;48.780;9.146;2022-10-01T02:40:08;9.30;99.90
7512;DHT22;9999;48.780;9.146;2022-10-01T02:42:37;9.40;99.90
7512;DHT22;9999;48.780;9.146;2022-10-01T02:45:08;9.30;99.90
7512;DHT22;9999;48.780;9.146;2022-10-01T02:47:40;9.30;99.90
7512;DHT22;9999;48.780;9.146;2022-10-01T02:50:10;9.30;99.90
7512;DHT22;9999;48.780;9.146;2022-10-01T02:52:41;9.30;99.90
7512;DHT22;9999;48.780;9.146;2022-10-01T02:55:12;9.30;99.90
7512;DHT22;9999;48.780;9.146;2022-10-01T02:57:41;9.20;99.90
7512;DHT22;9999;48.780;9.146;2022-10-01T03:00:11;9.30;99.90
7512;DHT22;9999;48.780;9.146;2022-10-01T03:02:38;9.20;99.90
7512;DHT22;9999;48.780;9.146;2022-10-01T03:05:06;9.30;99.90
7512;DHT22;9999;48.780;9.146;2022-10-01T03:07:34;9.30;99.90
7512;DHT22;9999;48.780;9.146;2022-10-01T03:10:01;9.30;99.90
7512;DHT22;9999;48.780;9.146;2022-10-01T03:12:28;9.30;99.90
7512;DHT22;9999;48.780;9.146;2022-10-01T03:14:55;9.30;99.90
7512;DHT22;9999;48.780;9.146;2022-10-01T03:17:23;9.30;99.90
7512;DHT22;9999;48.780;9.146;2022-10-01T03:19:50;9.30;99.90
7512;DHT22;9999;48.780;9.146;2022-10-01T03:22:19;9.30;99.90
7512;DHT22;9999;48.780;9.146;2022-10-01T03:24:47;9.30;99.90
7512;DHT22;9999;48.780;9.146;2022-10-01T03:27:14;9.20;99.90
7512;DHT22;9999;48.780;9.146;2022-10-01T03:29:42;9.20;99.90
7512;DHT22;9999;48.780;9.146;2022-10-01T03:32:09;9.20;99.90
7512;DHT22;9999;48.780;9.146;2022-10-01T03:34:37;9.20;99.90
7512;DHT22;9999;48.780;9.146;2022-10-01T03:37:05;9.20;99.90
7512;DHT22;9999;48.780;9.146;2022-10-01T03:39:32;9.20;99.90
7512;DHT22;9999;48.780;9.146;2022-10-01T03:41:58;9.20;99.90
7512;DHT22;9999;48.780;9.146;2022-10-01T03:44:25;9.20;99.90
7512;DHT22;9999;48.780;9.146;2022-10-01T03:46:52;9.20;99.90
7512;DHT22;9999;48.780;9.146;2022-10-01T03:49:19;9.20;99.90
7512;DHT22;9999;48.780;9.146;2022-10-01T03:51:47;9.10;99.90
7512;DHT22;9999;48.780;9.146;2022-10-01T03:54:14;9.10;99.90
7512;DHT22;9999;48.780;9.146;2022-10-01T03:56:42;9.10;99.90
7512;DHT22;9999;48.780;9.146;2022-10-01T03:59:09;9.10;99.90
7512;DHT22;9999;48.780;9.146;2022-10-01T04:01:36;9.10;99.90
7512;DHT22;9999;48.780;9.146;2022-10-01T04:04:03;9.00;99.90
7512;DHT22;9999;48.780;9.146;2022-10-01T04:06:30;9.10;99.90
7512;DHT22;9999;48.780;9.146;2022-10-01T04:08:58;9.00;99.90
7512;DHT22;9999;48.780;9.146;2022-10-01T04:11:25;9.10;99.90
7512;DHT22;9999;48.780;9.146;2022-10-01T04:13:52;9.10;99.90
7512;DHT22;9999;48.780;9.146;2022-10-01T04:16:19;9.10;99.90
7512;DHT22;9999;48.780;9.146;2022-10-01T04:18:46;9.10;99.90
7512;DHT22;9999;48.780;9.146;2022-10-01T04:21:13;9.10;99.90
7512;DHT22;9999;48.780;9.146;2022-10-01T04:23:40;9.20;99.90
7512;DHT22;9999;48.780;9.146;2022-10-01T04:26:08;9.20;99.90
7512;DHT22;9999;48.780;9.146;2022-10-01T04:28:35;9.20;99.90
7512;DHT22;9999;48.780;9.146;2022-10-01T04:31:02;9.20;99.90
7512;DHT22;9999;48.780;9.146;2022-10-01T04:33:43;9.20;99.90
7512;DHT22;9999;48.780;9.146;2022-10-01T04:36:10;9.20;99.90
7512;DHT22;9999;48.780;9.146;2022-10-01T04:38:37;9.30;99.90
7512;DHT22;9999;48.780;9.146;2022-10-01T04:41:04;9.20;99.90
7512;DHT22;9999;48.780;9.146;2022-10-01T04:43:32;9.20;99.90
7512;DHT22;9999;48.780;9.146;2022-10-01T04:45:59;9.20;99.90
7512;DHT22;9999;48.780;9.146;2022-10-01T04:48:26;9.10;99.90
7512;DHT22;9999;48.780;9.146;2022-10-01T04:50:52;9.20;99.90
7512;DHT22;9999;48.780;9.146;2022-10-01T04:53:19;9.10;99.90
7512;DHT22;9999;48.780;9.146;2022-10-01T04:55:46;9.10;99.90
7512;DHT22;9999;48.780;9.146;2022-10-01T04:58:13;9.20;99.90
7512;DHT22;9999;48.780;9.146;2022-10-01T05:00:41;9.20;99.90
7512;DHT22;9999;48.780;9.146;2022-10-01T05:03:08;9.20;99.90
7512;DHT22;9999;48.780;9.146;2022-10-01T05:05:35;9.20;99.90
7512;DHT22;9999;48.780;9.146;2022-10-01T05:08:03;9.20;99.90
7512;DHT22;9999;48.780;9.146;2022-10-01T05:10:30;9.20;99.90
7512;DHT22;9999;48.780;9.146;2022-10-01T05:12:57;9.20;99.90
7512;DHT22;9999;48.780;9.146;2022-10-01T05:15:27;9.30;99.90
7512;DHT22;9999;48.780;9.146;2022-10-01T05:17:55;9.30;99.90
7512;DHT22;9999;48.780;9.146;2022-10-01T05:20:24;9.40;99.90
7512;DHT22;9999;48.780;9.146;2022-10-01T05:22:51;9.30;99.90
7512;DHT22;9999;48.780;9.146;2022-10-01T05:25:19;9.30;99.90
7512;DHT22;9999;48.780;9.146;2022-10-01T05:27:46;9.40;99.90
7512;DHT22;9999;48.780;9.146;2022-10-01T05:30:14;9.50;99.90
7512;DHT22;9999;48.780;9.146;2022-10-01T05:32:53;9.50;99.90
7512;DHT22;9999;48.780;9.146;2022-10-01T05:35:22;9.50;99.90
7512;DHT22;9999;48.780;9.146;2022-10-01T05:37:52;9.50;99.90
7512;DHT22;9999;48.780;9.146;2022-10-01T05:40:19;9.50;99.90
7512;DHT22;9999;48.780;9.146;2022-10-01T05:42:46;9.50;99.90
7512;DHT22;9999;48.780;9.146;2022-10-01T05:45:13;9.50;99.90
7512;DHT22;9999;48.780;9.146;2022-10-01T05:47:40;9.50;99.90
7512;DHT22;9999;48.780;9.146;2022-10-01T05:50:07;9.50;99.90
7512;DHT22;9999;48.780;9.146;2022-10-01T05:52:36;9.60;99.90
7512;DHT22;9999;48.780;9.146;2022-10-01T05:55:03;9.60;99.90
7512;DHT22;9999;48.780;9.146;2022-10-01T05:57:30;9.60;99.90
7512;DHT22;9999;48.780;9.146;2022-10-01T05:59:57;9.60;99.90
7512;DHT22;9999;48.780;9.146;2022-10-01T06:02:24;9.60;99.90
7512;DHT22;9999;48.780;9.146;2022-10-01T06:04:51;9.60;99.90
7512;DHT22;9999;48.780;9.146;2022-10-01T06:07:17;9.60;99.90
7512;DHT22;9999;48.780;9.146;2022-10-01T06:09:46;9.60;99.90
7512;DHT22;9999;48.780;9.146;2022-10-01T06:12:13;9.50;99.90
7512;DHT22;9999;48.780;9.146;2022-10-01T06:14:40;9.50;99.90
7512;DHT22;9999;48.780;9.146;2022-10-01T06:17:07;9.50;99.90
7512;DHT22;9999;48.780;9.146;2022-10-01T06:19:34;9.40;99.90
7512;DHT22;9999;48.780;9.146;2022-10-01T06:22:00;9.40;99.90
7512;DHT22;9999;48.780;9.146;2022-10-01T06:24:27;9.40;99.90
7512;DHT22;9999;48.780;9.146;2022-10-01T06:26:56;9.30;99.90
7512;DHT22;9999;48.780;9.146;2022-10-01T06:29:23;9.40;99.90
7512;DHT22;9999;48.780;9.146;2022-10-01T06:31:49;9.30;99.90
7512;DHT22;9999;48.780;9.146;2022-10-01T06:34:16;9.30;99.90
7512;DHT22;9999;48.780;9.146;2022-10-01T06:36:43;9.30;99.90
7512;DHT22;9999;48.780;9.146;2022-10-01T06:39:10;9.30;99.90
7512;DHT22;9999;48.780;9.146;2022-10-01T06:41:37;9.30;99.90
7512;DHT22;9999;48.780;9.146;2022-10-01T06:44:10;9.30;99.90
7512;DHT22;9999;48.780;9.146;2022-10-01T06:46:37;9.30;99.90
7512;DHT22;9999;48.780;9.146;2022-10-01T06:49:04;9.30;99.90
7512;DHT22;9999;48.780;9.146;2022-10-01T06:51:31;9.30;99.90
7512;DHT22;9999;48.780;9.146;2022-10-01T06:54:15;9.40;99.90
7512;DHT22;9999;48.780;9.146;2022-10-01T06:56:42;9.40;99.90
7512;DHT22;9999;48.780;9.146;2022-10-01T06:59:11;9.40;99.90
7512;DHT22;9999;48.780;9.146;2022-10-01T07:01:38;9.30;99.90
7512;DHT22;9999;48.780;9.146;2022-10-01T07:04:04;9.30;99.90
7512;DHT22;9999;48.780;9.146;2022-10-01T07:06:31;9.30;99.90
7512;DHT22;9999;48.780;9.146;2022-10-01T07:08:58;9.30;99.90
7512;DHT22;9999;48.780;9.146;2022-10-01T07:11:25;9.30;99.90
7512;DHT22;9999;48.780;9.146;2022-10-01T07:13:52;9.30;99.90
7512;DHT22;9999;48.780;9.146;2022-10-01T07:16:20;9.30;99.90
7512;DHT22;9999;48.780;9.146;2022-10-01T07:18:47;9.30;99.90
7512;DHT22;9999;48.780;9.146;2022-10-01T07:21:13;9.30;99.90
7512;DHT22;9999;48.780;9.146;2022-10-01T07:23:40;9.30;99.90
7512;DHT22;9999;48.780;9.146;2022-10-01T07:26:07;9.30;99.90
7512;DHT22;9999;48.780;9.146;2022-10-01T07:28:34;9.40;99.90
7512;DHT22;9999;48.780;9.146;2022-10-01T07:31:03;9.40;99.90
7512;DHT22;9999;48.780;9.146;2022-10-01T07:33:35;9.30;99.90
7512;DHT22;9999;48.780;9.146;2022-10-01T07:36:03;9.30;99.90
7512;DHT22;9999;48.780;9.146;2022-10-01T07:38:31;9.30;99.90
7512;DHT22;9999;48.780;9.146;2022-10-01T07:40:59;9.30;99.90
7512;DHT22;9999;48.780;9.146;2022-10-01T07:43:27;9.30;99.90
7512;DHT22;9999;48.780;9.146;2022-10-01T07:45:54;9.30;99.90
7512;DHT22;9999;48.780;9.146;2022-10-01T07:48:22;9.30;99.90
7512;DHT22;9999;48.780;9.146;2022-10-01T07:50:50;9.40;99.90
7512;DHT22;9999;48.780;9.146;2022-10-01T07:53:18;9.40;99.90
7512;DHT22;9999;48.780;9.146;2022-10-01T07:55:45;9.40;99.90
7512;DHT22;9999;48.780;9.146;2022-10-01T07:58:12;9.40;99.90
7512;DHT22;9999;48.780;9.146;2022-10-01T08:00:39;9.40;99.90
7512;DHT22;9999;48.780;9.146;2022-10-01T08:03:05;9.40;99.90
7512;DHT22;9999;48.780;9.146;2022-10-01T08:05:34;9.40;99.90
7512;DHT22;9999;48.780;9.146;2022-10-01T08:08:05;9.40;99.90
7512;DHT22;9999;48.780;9.146;2022-10-01T08:10:34;9.40;99.90
7512;DHT22;9999;48.780;9.146;2022-10-01T08:13:03;9.40;99.90
7512;DHT22;9999;48.780;9.146;2022-10-01T08:15:33;9.30;99.90
7512;DHT22;9999;48.780;9.146;2022-10-01T08:18:01;9.30;99.90
7512;DHT22;9999;48.780;9.146;2022-10-01T08:20:28;9.30;99.90
7512;DHT22;9999;48.780;9.146;2022-10-01T08:23:01;9.40;99.90
7512;DHT22;9999;48.780;9.146;2022-10-01T08:25:28;9.40;99.90
7512;DHT22;9999;48.780;9.146;2022-10-01T08:27:55;9.40;99.90
7512;DHT22;9999;48.780;9.146;2022-10-01T08:30:22;9.40;99.90
7512;DHT22;9999;48.780;9.146;2022-10-01T08:32:53;9.40;99.90
7512;DHT22;9999;48.780;9.146;2022-10-01T08:35:20;9.40;99.90
7512;DHT22;9999;48.780;9.146;2022-10-01T08:37:46;9.40;99.90
7512;DHT22;9999;48.780;9.146;2022-10-01T08:40:15;9.40;99.90
7512;DHT22;9999;48.780;9.146;2022-10-01T08:42:50;9.40;99.90
7512;DHT22;9999;48.780;9.146;2022-10-01T08:45:22;9.50;99.90
7512;DHT22;9999;48.780;9.146;2022-10-01T08:47:57;9.50;99.90
7512;DHT22;9999;48.780;9.146;2022-10-01T08:50:39;9.50;99.90
7512;DHT22;9999;48.780;9.146;2022-10-01T08:53:14;9.60;99.90
7512;DHT22;9999;48.780;9.146;2022-10-01T08:55:45;9.60;99.90
7512;DHT22;9999;48.780;9.146;2022-10-01T08:58:17;9.60;99.90
7512;DHT22;9999;48.780;9.146;2022-10-01T09:00:47;9.60;99.90
7512;DHT22;9999;48.780;9.146;2022-10-01T09:03:15;9.60;99.90
7512;DHT22;9999;48.780;9.146;2022-10-01T09:06:00;9.60;99.90
7512;DHT22;9999;48.780;9.146;2022-10-01T09:08:40;9.70;99.90
7512;DHT22;9999;48.780;9.146;2022-10-01T09:11:18;9.70;99.90
7512;DHT22;9999;48.780;9.146;2022-10-01T09:16:42;9.80;99.90
7512;DHT22;9999;48.780;9.146;2022-10-01T09:19:23;9.80;99.90
7512;DHT22;9999;48.780;9.146;2022-10-01T09:21:57;9.90;99.90
7512;DHT22;9999;48.780;9.146;2022-10-01T09:24:33;9.90;99.90
7512;DHT22;9999;48.780;9.146;2022-10-01T09:27:12;10.00;99.90
7512;DHT22;9999;48.780;9.146;2022-10-01T09:29:43;10.00;99.90
7512;DHT22;9999;48.780;9.146;2022-10-01T09:32:14;10.00;99.90
7512;DHT22;9999;48.780;9.146;2022-10-01T09:34:44;10.10;99.90
7512;DHT22;9999;48.780;9.146;2022-10-01T09:37:19;10.10;99.90
7512;DHT22;9999;48.780;9.146;2022-10-01T09:39:56;10.10;99.90
7512;DHT22;9999;48.780;9.146;2022-10-01T09:42:28;10.10;99.90
7512;DHT22;9999;48.780;9.146;2022-10-01T09:44:55;10.10;99.90
7512;DHT22;9999;48.780;9.146;2022-10-01T09:47:23;10.10;99.90
7512;DHT22;9999;48.780;9.146;2022-10-01T09:49:51;10.20;99.90
7512;DHT22;9999;48.780;9.146;2022-10-01T09:52:23;10.30;99.90
7512;DHT22;9999;48.780;9.146;2022-10-01T09:54:55;10.30;99.90
7512;DHT22;9999;48.780;9.146;2022-10-01T09:57:25;10.20;99.90
7512;DHT22;9999;48.780;9.146;2022-10-01T10:00:03;10.30;99.90
7512;DHT22;9999;48.780;9.146;2022-10-01T10:02:32;10.30;99.90
7512;DHT22;9999;48.780;9.146;2022-10-01T10:05:00;10.40;99.90
7512;DHT22;9999;48.780;9.146;2022-10-01T10:07:27;10.40;99.90
7512;DHT22;9999;48.780;9.146;2022-10-01T10:10:05;10.40;99.90
7512;DHT22;9999;48.780;9.146;2022-10-01T10:12:32;10.40;99.90
7512;DHT22;9999;48.780;9.146;2022-10-01T10:15:06;10.40;99.90
7512;DHT22;9999;48.780;9.146;2022-10-01T10:17:34;10.50;99.90
7512;DHT22;9999;48.780;9.146;2022-10-01T10:20:08;10.50;99.90
7512;DHT22;9999;48.780;9.146;2022-10-01T10:22:36;10.50;99.90
7512;DHT22;9999;48.780;9.146;2022-10-01T10:25:10;10.50;99.90
7512;DHT22;9999;48.780;9.146;2022-10-01T10:27:48;10.50;99.90
7512;DHT22;9999;48.780;9.146;2022-10-01T10:30:17;10.60;99.90
7512;DHT22;9999;48.780;9.146;2022-10-01T10:32:44;10.60;99.90
7512;DHT22;9999;48.780;9.146;2022-10-01T10:35:15;10.60;99.90
7512;DHT22;9999;48.780;9.146;2022-10-01T10:37:46;10.60;99.90
7512;DHT22;9999;48.780;9.146;2022-10-01T10:40:17;10.60;99.90
7512;DHT22;9999;48.780;9.146;2022-10-01T10:42:46;10.60;99.90
7512;DHT22;9999;48.780;9.146;2022-10-01T10:45:18;10.70;99.90
7512;DHT22;9999;48.780;9.146;2022-10-01T10:47:47;10.70;99.90
7512;DHT22;9999;48.780;9.146;2022-10-01T10:50:27;10.70;99.90
7512;DHT22;9999;48.780;9.146;2022-10-01T10:52:55;10.90;99.90
7512;DHT22;9999;48.780;9.146;2022-10-01T10:55:24;10.80;99.90
7512;DHT22;9999;48.780;9.146;2022-10-01T10:57:51;10.90;99.90
7512;DHT22;9999;48.780;9.146;2022-10-01T11:00:22;11.00;99.90
7512;DHT22;9999;48.780;9.146;2022-10-01T11:02:52;11.00;99.90
7512;DHT22;9999;48.780;9.146;2022-10-01T11:05:21;11.00;99.90
7512;DHT22;9999;48.780;9.146;2022-10-01T11:07:53;11.20;99.90
7512;DHT22;9999;48.780;9.146;2022-10-01T11:10:37;11.30;99.90
7512;DHT22;9999;48.780;9.146;2022-10-01T11:13:25;11.40;99.90
7512;DHT22;9999;48.780;9.146;2022-10-01T11:16:12;11.50;99.90
7512;DHT22;9999;48.780;9.146;2022-10-01T11:18:54;11.60;99.90
7512;DHT22;9999;48.780;9.146;2022-10-01T11:21:38;11.50;99.90
7512;DHT22;9999;48.780;9.146;2022-10-01T11:24:22;11.50;99.90
7512;DHT22;9999;48.780;9.146;2022-10-01T11:27:03;11.40;99.90
7512;DHT22;9999;48.780;9.146;2022-10-01T11:29:41;11.30;99.90
7512;DHT22;9999;48.780;9.146;2022-10-01T11:32:20;11.30;99.90
7512;DHT22;9999;48.780;9.146;2022-10-01T11:35:02;11.40;99.90
7512;DHT22;9999;48.780;9.146;2022-10-01T11:37:42;11.40;99.90
7512;DHT22;9999;48.780;9.146;2022-10-01T11:40:16;11.50;99.90
7512;DHT22;9999;48.780;9.146;2022-10-01T11:42:45;11.50;99.90
7512;DHT22;9999;48.780;9.146;2022-10-01T11:45:17;11.40;99.90
7512;DHT22;9999;48.780;9.146;2022-10-01T11:47:50;11.40;99.90
7512;DHT22;9999;48.780;9.146;2022-10-01T11:50:20;11.50;99.90
7512;DHT22;9999;48.780;9.146;2022-10-01T11:52:52;11.40;99.90
7512;DHT22;9999;48.780;9.146;2022-10-01T11:55:22;11.40;99.90
7512;DHT22;9999;48.780;9.146;2022-10-01T11:58:15;11.50;99.90
7512;DHT22;9999;48.780;9.146;2022-10-01T12:01:07;11.40;99.90
7512;DHT22;9999;48.780;9.146;2022-10-01T12:03:48;11.40;99.90
7512;DHT22;9999;48.780;9.146;2022-10-01T12:06:23;11.30;99.90
7512;DHT22;9999;48.780;9.146;2022-10-01T12:09:04;11.30;99.90
7512;DHT22;9999;48.780;9.146;2022-10-01T12:11:37;11.40;99.90
7512;DHT22;9999;48.780;9.146;2022-10-01T12:14:10;11.40;99.90
7512;DHT22;9999;48.780;9.146;2022-10-01T12:16:42;11.50;99.90
7512;DHT22;9999;48.780;9.146;2022-10-01T12:19:15;11.50;99.90
7512;DHT22;9999;48.780;9.146;2022-10-01T12:21:48;11.50;99.90
7512;DHT22;9999;48.780;9.146;2022-10-01T12:24:19;11.50;99.90
7512;DHT22;9999;48.780;9.146;2022-10-01T12:26:56;11.50;99.90
7512;DHT22;9999;48.780;9.146;2022-10-01T12:29:29;11.60;99.90
7512;DHT22;9999;48.780;9.146;2022-10-01T12:32:10;11.60;99.90
7512;DHT22;9999;48.780;9.146;2022-10-01T12:34:48;11.70;99.90
7512;DHT22;9999;48.780;9.146;2022-10-01T12:37:26;11.60;99.90
7512;DHT22;9999;48.780;9.146;2022-10-01T12:40:08;11.70;99.90
7512;DHT22;9999;48.780;9.146;2022-10-01T12:45:43;11.70;99.90
7512;DHT22;9999;48.780;9.146;2022-10-01T12:48:14;11.70;99.90
7512;DHT22;9999;48.780;9.146;2022-10-01T12:50:53;11.70;99.90
7512;DHT22;9999;48.780;9.146;2022-10-01T12:53:28;11.70;99.90
7512;DHT22;9999;48.780;9.146;2022-10-01T12:56:02;11.80;99.90
7512;DHT22;9999;48.780;9.146;2022-10-01T12:58:51;11.90;99.90
7512;DHT22;9999;48.780;9.146;2022-10-01T13:01:33;11.90;99.90
7512;DHT22;9999;48.780;9.146;2022-10-01T13:04:20;11.90;99.90
7512;DHT22;9999;48.780;9.146;2022-10-01T13:07:01;11.90;99.90
7512;DHT22;9999;48.780;9.146;2022-10-01T13:09:37;11.90;99.90
7512;DHT22;9999;48.780;9.146;2022-10-01T13:12:15;12.00;99.90
7512;DHT22;9999;48.780;9.146;2022-10-01T13:14:49;12.00;99.90
7512;DHT22;9999;48.780;9.146;2022-10-01T13:17:22;12.10;99.90
7512;DHT22;9999;48.780;9.146;2022-10-01T13:19:54;12.20;99.90
7512;DHT22;9999;48.780;9.146;2022-10-01T13:22:33;12.30;99.90
7512;DHT22;9999;48.780;9.146;2022-10-01T13:25:14;12.30;99.90
7512;DHT22;9999;48.780;9.146;2022-10-01T13:27:48;12.40;99.90
7512;DHT22;9999;48.780;9.146;2022-10-01T13:30:19;12.40;99.90
7512;DHT22;9999;48.780;9.146;2022-10-01T13:32:52;12.60;99.90
7512;DHT22;9999;48.780;9.146;2022-10-01T13:35:23;12.70;99.90
7512;DHT22;9999;48.780;9.146;2022-10-01T13:37:52;12.80;99.90
7512;DHT22;9999;48.780;9.146;2022-10-01T13:40:25;12.80;99.90
7512;DHT22;9999;48.780;9.146;2022-10-01T13:42:55;13.00;99.90
7512;DHT22;9999;48.780;9.146;2022-10-01T13:45:30;13.00;99.90
7512;DHT22;9999;48.780;9.146;2022-10-01T13:48:06;13.10;99.90
7512;DHT22;9999;48.780;9.146;2022-10-01T13:50:39;13.20;99.90
7512;DHT22;9999;48.780;9.146;2022-10-01T13:53:14;13.20;99.90
7512;DHT22;9999;48.780;9.146;2022-10-01T13:55:44;13.30;99.90
7512;DHT22;9999;48.780;9.146;2022-10-01T13:58:22;13.20;99.90
7512;DHT22;9999;48.780;9.146;2022-10-01T14:00:50;13.30;99.90
7512;DHT22;9999;48.780;9.146;2022-10-01T14:03:49;13.40;99.90
7512;DHT22;9999;48.780;9.146;2022-10-01T14:06:23;13.40;99.90
7512;DHT22;9999;48.780;9.146;2022-10-01T14:08:55;13.40;99.90
7512;DHT22;9999;48.780;9.146;2022-10-01T14:11:27;13.40;99.90
7512;DHT22;9999;48.780;9.146;2022-10-01T14:14:19;13.40;99.90
7512;DHT22;9999;48.780;9.146;2022-10-01T14:17:06;13.40;99.90
7512;DHT22;9999;48.780;9.146;2022-10-01T14:19:33;13.50;99.90
7512;DHT22;9999;48.780;9.146;2022-10-01T14:22:11;13.60;99.90
7512;DHT22;9999;48.780;9.146;2022-10-01T14:25:01;13.50;99.90
7512;DHT22;9999;48.780;9.146;2022-10-01T14:27:34;13.50;99.90
7512;DHT22;9999;48.780;9.146;2022-10-01T14:30:08;13.40;99.90
7512;DHT22;9999;48.780;9.146;2022-10-01T14:32:48;13.40;99.90
7512;DHT22;9999;48.780;9.146;2022-10-01T14:35:27;13.40;99.90
7512;DHT22;9999;48.780;9.146;2022-10-01T14:37:57;13.40;99.90
7512;DHT22;9999;48.780;9.146;2022-10-01T14:40:34;13.50;99.90
7512;DHT22;9999;48.780;9.146;2022-10-01T14:43:12;13.50;99.90
7512;DHT22;9999;48.780;9.146;2022-10-01T14:45:52;13.40;99.90
7512;DHT22;9999;48.780;9.146;2022-10-01T14:48:20;13.50;99.90
7512;DHT22;9999;48.780;9.146;2022-10-01T14:50:50;13.40;99.90
7512;DHT22;9999;48.780;9.146;2022-10-01T14:53:20;13.50;99.90
7512;DHT22;9999;48.780;9.146;2022-10-01T14:55:50;13.40;99.90
7512;DHT22;9999;48.780;9.146;2022-10-01T14:58:20;13.40;99.90
7512;DHT22;9999;48.780;9.146;2022-10-01T15:00:50;13.50;99.90
7512;DHT22;9999;48.780;9.146;2022-10-01T15:03:18;13.50;99.90
7512;DHT22;9999;48.780;9.146;2022-10-01T15:05:46;13.50;99.90
7512;DHT22;9999;48.780;9.146;2022-10-01T15:08:17;13.40;99.90
7512;DHT22;9999;48.780;9.146;2022-10-01T15:10:47;13.30;99.90
7512;DHT22;9999;48.780;9.146;2022-10-01T15:13:23;13.40;99.90
7512;DHT22;9999;48.780;9.146;2022-10-01T15:15:53;13.50;99.90
7512;DHT22;9999;48.780;9.146;2022-10-01T15:18:21;13.40;99.90
7512;DHT22;9999;48.780;9.146;2022-10-01T15:20:56;13.30;99.90
7512;DHT22;9999;48.780;9.146;2022-10-01T15:23:25;13.40;99.90
7512;DHT22;9999;48.780;9.146;2022-10-01T15:25:55;13.40;99.90
7512;DHT22;9999;48.780;9.146;2022-10-01T15:28:27;13.40;99.90
7512;DHT22;9999;48.780;9.146;2022-10-01T15:30:57;13.20;99.90
7512;DHT22;9999;48.780;9.146;2022-10-01T15:33:30;13.20;99.90
7512;DHT22;9999;48.780;9.146;2022-10-01T15:36:00;13.20;99.90
7512;DHT22;9999;48.780;9.146;2022-10-01T15:38:29;13.20;99.90
7512;DHT22;9999;48.780;9.146;2022-10-01T15:40:58;13.20;99.90
7512;DHT22;9999;48.780;9.146;2022-10-01T15:43:33;13.20;99.90
7512;DHT22;9999;48.780;9.146;2022-10-01T15:46:16;13.10;99.90
7512;DHT22;9999;48.780;9.146;2022-10-01T15:48:44;13.20;99.90
7512;DHT22;9999;48.780;9.146;2022-10-01T15:51:18;13.20;99.90
7512;DHT22;9999;48.780;9.146;2022-10-01T15:53:47;13.20;99.90
7512;DHT22;9999;48.780;9.146;2022-10-01T15:56:17;13.20;99.90
7512;DHT22;9999;48.780;9.146;2022-10-01T15:58:49;13.20;99.90
7512;DHT22;9999;48.780;9.146;2022-10-01T16:01:20;13.20;99.90
7512;DHT22;9999;48.780;9.146;2022-10-01T16:03:51;13.10;99.90
7512;DHT22;9999;48.780;9.146;2022-10-01T16:06:21;13.10;99.90
7512;DHT22;9999;48.780;9.146;2022-10-01T16:08:58;13.10;99.90
7512;DHT22;9999;48.780;9.146;2022-10-01T16:11:27;13.10;99.90
7512;DHT22;9999;48.780;9.146;2022-10-01T16:14:32;13.10;99.90
7512;DHT22;9999;48.780;9.146;2022-10-01T16:17:26;13.20;99.90
7512;DHT22;9999;48.780;9.146;2022-10-01T16:19:55;13.20;99.90
7512;DHT22;9999;48.780;9.146;2022-10-01T16:22:24;13.10;99.90
7512;DHT22;9999;48.780;9.146;2022-10-01T16:24:52;13.10;99.90
7512;DHT22;9999;48.780;9.146;2022-10-01T16:27:21;13.10;99.90
7512;DHT22;9999;48.780;9.146;2022-10-01T16:29:52;13.10;99.90
7512;DHT22;9999;48.780;9.146;2022-10-01T16:32:19;13.00;99.90
7512;DHT22;9999;48.780;9.146;2022-10-01T16:34:46;13.00;99.90
7512;DHT22;9999;48.780;9.146;2022-10-01T16:37:14;13.00;99.90
7512;DHT22;9999;48.780;9.146;2022-10-01T16:39:40;13.00;99.90
7512;DHT22;9999;48.780;9.146;2022-10-01T16:42:10;13.00;99.90
7512;DHT22;9999;48.780;9.146;2022-10-01T16:44:42;13.00;99.90